createdAt,value
2023-01-25T00:02:14.140Z,21.53
2023-01-25T00:04:44.008Z,21.80
2023-01-25T00:07:14.064Z,20.57
2023-01-25T00:09:43.908Z,21.23
2023-01-25T00:12:13.693Z,24.20
2023-01-25T00:14:46.174Z,22.47
2023-01-25T00:17:16.000Z,21.10
2023-01-25T00:19:47.945Z,21.90
2023-01-25T00:22:17.891Z,20.97
2023-01-25T00:24:47.891Z,21.23
2023-01-25T00:27:17.908Z,20.77
2023-01-25T00:29:50.757Z,20.03
2023-01-25T00:32:44.455Z,22.57
2023-01-25T00:35:15.599Z,21.87
2023-01-25T00:37:47.333Z,22.07
2023-01-25T00:40:17.323Z,20.20
2023-01-25T00:42:47.474Z,21.87
2023-01-25T00:45:20.273Z,22.27
2023-01-25T00:47:50.716Z,21.17
2023-01-25T00:50:20.827Z,21.70
2023-01-25T00:52:50.716Z,20.10
2023-01-25T00:55:20.615Z,22.17
2023-01-25T00:57:50.495Z,18.60
2023-01-25T01:00:23.247Z,22.47
2023-01-25T01:02:53.095Z,23.00
2023-01-25T01:05:22.947Z,22.53
2023-01-25T01:07:53.396Z,21.53
2023-01-25T01:10:23.326Z,20.07
2023-01-25T01:12:54.531Z,23.13
2023-01-25T01:15:27.006Z,21.10
2023-01-25T01:17:57.272Z,21.03
2023-01-25T01:20:27.271Z,21.43
2023-01-25T01:22:59.173Z,23.30
2023-01-25T01:25:29.088Z,22.37
2023-01-25T01:28:00.156Z,24.17
2023-01-25T01:31:23.577Z,22.63
2023-01-25T01:33:58.501Z,22.87
2023-01-25T01:36:32.305Z,22.47
2023-01-25T01:43:27.161Z,23.97
2023-01-25T01:46:18.059Z,21.57
2023-01-25T01:47:19.562Z,27.30
2023-01-25T01:48:52.194Z,24.63
2023-01-25T01:51:27.436Z,22.63
2023-01-25T01:54:02.015Z,22.87
2023-01-25T01:56:37.471Z,21.03
2023-01-25T01:59:09.254Z,25.43
2023-01-25T02:01:43.286Z,22.17
2023-01-25T02:04:15.536Z,21.20
2023-01-25T02:06:53.254Z,22.50
2023-01-25T02:09:26.685Z,21.07
2023-01-25T02:11:58.132Z,21.33
2023-01-25T02:14:30.007Z,26.50
2023-01-25T02:17:03.134Z,24.83
2023-01-25T02:19:45.423Z,24.57
2023-01-25T02:22:20.544Z,25.93
2023-01-25T02:24:57.032Z,26.43
2023-01-25T02:27:29.650Z,23.73
2023-01-25T02:30:00.135Z,25.30
2023-01-25T02:32:30.080Z,23.50
2023-01-25T02:34:59.883Z,24.67
2023-01-25T02:37:30.047Z,25.33
2023-01-25T02:39:59.880Z,25.90
2023-01-25T02:42:35.793Z,25.30
2023-01-25T02:45:09.363Z,24.13
2023-01-25T02:47:56.610Z,29.47
2023-01-25T02:50:26.604Z,25.67
2023-01-25T02:52:56.675Z,24.17
2023-01-25T02:55:26.769Z,22.80
2023-01-25T02:57:59.600Z,24.27
2023-01-25T03:01:31.409Z,24.60
2023-01-25T03:04:05.862Z,24.00
2023-01-25T03:06:59.096Z,26.40
2023-01-25T03:25:52.409Z,25.00
2023-01-25T03:28:22.231Z,26.07
2023-01-25T03:30:56.004Z,26.57
2023-01-25T03:33:25.860Z,24.40
2023-01-25T03:35:55.835Z,25.43
2023-01-25T03:38:25.738Z,25.37
2023-01-25T03:40:58.401Z,26.80
2023-01-25T03:43:28.547Z,27.17
2023-01-25T03:45:59.824Z,26.33
2023-01-25T03:48:31.798Z,25.90
2023-01-25T03:51:02.726Z,27.30
2023-01-25T03:53:34.025Z,27.40
2023-01-25T03:56:10.092Z,26.20
2023-01-25T03:58:41.572Z,27.53
2023-01-25T04:01:12.317Z,27.27
2023-01-25T04:03:42.347Z,32.13
2023-01-25T04:06:12.255Z,26.23
2023-01-25T04:08:42.046Z,28.83
2023-01-25T04:11:14.453Z,28.53
2023-01-25T04:13:44.223Z,31.47
2023-01-25T04:16:14.272Z,33.00
2023-01-25T04:18:44.111Z,31.53
2023-01-25T04:21:13.888Z,32.33
2023-01-25T04:23:43.804Z,31.27
2023-01-25T04:26:16.945Z,37.47
2023-01-25T04:28:46.798Z,38.73
2023-01-25T04:31:16.666Z,33.90
2023-01-25T04:33:46.518Z,31.30
2023-01-25T04:36:16.325Z,40.30
2023-01-25T04:38:46.119Z,38.30
2023-01-25T04:41:18.577Z,37.60
2023-01-25T04:43:48.359Z,40.13
2023-01-25T05:09:33.361Z,40.30
2023-01-25T05:12:03.284Z,38.67
2023-01-25T05:14:34.183Z,36.80
2023-01-25T05:17:04.098Z,42.23
2023-01-25T05:19:34.065Z,37.43
2023-01-25T05:22:07.853Z,40.67
2023-01-25T05:24:42.184Z,42.30
2023-01-25T05:27:10.535Z,42.30
2023-01-25T05:29:49.454Z,40.53
2023-01-25T05:32:22.318Z,41.83
2023-01-25T05:34:52.434Z,41.67
2023-01-25T05:37:24.466Z,47.73
2023-01-25T05:39:57.294Z,44.77
2023-01-25T05:42:27.403Z,43.27
2023-01-25T05:44:57.593Z,46.37
2023-01-25T05:47:27.841Z,45.13
2023-01-25T05:50:11.016Z,41.23
2023-01-25T05:52:41.182Z,43.33
2023-01-25T05:55:15.700Z,44.40
2023-01-25T05:57:48.760Z,46.63
2023-01-25T06:08:02.152Z,51.90
2023-01-25T06:10:34.757Z,47.57
2023-01-25T06:16:58.841Z,49.20
2023-01-25T06:19:31.836Z,45.87
2023-01-25T06:22:01.835Z,51.70
2023-01-25T06:24:32.271Z,48.37
2023-01-25T06:27:07.776Z,48.17
2023-01-25T06:29:37.754Z,49.27
2023-01-25T06:32:11.413Z,51.93
2023-01-25T06:34:41.584Z,46.47
2023-01-25T06:37:11.506Z,47.73
2023-01-25T06:39:42.222Z,47.10
2023-01-25T06:42:15.111Z,43.57
2023-01-25T06:44:45.093Z,47.27
2023-01-25T06:47:15.443Z,43.90
2023-01-25T06:49:46.885Z,47.27
2023-01-25T06:52:38.732Z,46.87
2023-01-25T06:55:14.091Z,46.37
2023-01-25T06:57:46.602Z,46.67
2023-01-25T07:00:17.806Z,45.70
2023-01-25T07:02:47.744Z,46.60
2023-01-25T07:05:19.110Z,49.73
2023-01-25T07:07:50.939Z,48.03
2023-01-25T07:10:21.070Z,49.87
2023-01-25T07:12:53.515Z,43.43
2023-01-25T07:15:24.020Z,51.43
2023-01-25T07:17:53.991Z,46.83
2023-01-25T07:20:23.861Z,42.03
2023-01-25T07:22:54.004Z,46.40
2023-01-25T07:25:23.882Z,44.77
2023-01-25T07:27:56.394Z,45.87
2023-01-25T07:30:26.314Z,51.57
2023-01-25T07:32:56.302Z,43.60
2023-01-25T07:35:26.352Z,44.13
2023-01-25T07:37:56.336Z,43.27
2023-01-25T07:40:27.104Z,45.67
2023-01-25T07:42:59.770Z,46.33
2023-01-25T07:45:30.650Z,41.97
2023-01-25T07:48:01.837Z,46.37
2023-01-25T07:50:32.257Z,46.67
2023-01-25T07:53:04.448Z,44.80
2023-01-25T07:55:34.281Z,41.83
2023-01-25T07:58:06.684Z,46.40
2023-01-25T08:00:36.654Z,45.33
2023-01-25T08:03:07.712Z,46.77
2023-01-25T08:05:39.395Z,42.60
2023-01-25T08:08:09.350Z,42.30
2023-01-25T08:10:39.294Z,45.90
2023-01-25T08:13:11.713Z,40.67
2023-01-25T08:15:41.521Z,37.27
2023-01-25T08:18:11.387Z,36.53
2023-01-25T08:20:41.126Z,39.13
2023-01-25T08:23:10.908Z,38.57
2023-01-25T08:25:40.683Z,40.70
2023-01-25T08:28:13.072Z,37.73
2023-01-25T08:30:56.542Z,41.43
2023-01-25T08:33:27.206Z,44.57
2023-01-25T08:36:00.193Z,41.07
2023-01-25T08:38:30.127Z,41.00
2023-01-25T08:41:07.190Z,38.03
2023-01-25T08:43:39.699Z,41.57
2023-01-25T08:46:10.152Z,43.97
2023-01-25T08:48:40.411Z,45.87
2023-01-25T08:51:12.051Z,39.73
2023-01-25T08:53:41.907Z,40.20
2023-01-25T08:56:13.639Z,42.70
2023-01-25T08:58:47.937Z,43.73
2023-01-25T09:01:19.426Z,42.83
2023-01-25T09:03:51.690Z,41.57
2023-01-25T09:06:22.662Z,37.80
2023-01-25T09:08:52.651Z,39.03
2023-01-25T09:11:24.567Z,41.17
2023-01-25T09:13:57.080Z,43.97
2023-01-25T09:16:31.019Z,43.53
2023-01-25T09:19:02.284Z,44.20
2023-01-25T09:21:32.706Z,43.03
2023-01-25T09:24:07.265Z,41.50
2023-01-25T09:26:39.354Z,45.37
2023-01-25T09:29:15.440Z,44.07
2023-01-25T09:31:46.330Z,45.67
2023-01-25T09:34:18.250Z,44.97
2023-01-25T09:36:48.016Z,44.13
2023-01-25T09:39:17.812Z,43.43
2023-01-25T09:42:15.480Z,44.63
2023-01-25T09:45:07.114Z,46.23
2023-01-25T09:47:45.139Z,40.47
2023-01-25T09:50:38.550Z,46.70
2023-01-25T09:53:33.081Z,46.80
2023-01-25T09:56:06.536Z,46.07
2023-01-25T09:58:40.158Z,50.13
2023-01-25T10:01:38.652Z,39.37
2023-01-25T10:04:16.222Z,45.17
2023-01-25T10:06:59.811Z,47.80
2023-01-25T10:09:43.966Z,43.63
2023-01-25T10:12:22.335Z,45.60
2023-01-25T10:14:52.990Z,44.30
2023-01-25T10:17:35.182Z,39.83
2023-01-25T10:20:24.319Z,44.60
2023-01-25T10:23:10.094Z,44.07
2023-01-25T10:25:48.566Z,42.53
2023-01-25T10:28:31.231Z,39.83
2023-01-25T10:31:05.557Z,42.73
2023-01-25T10:33:43.069Z,44.23
2023-01-25T10:36:17.560Z,47.30
2023-01-25T10:38:49.301Z,45.50
2023-01-25T10:41:25.118Z,43.97
2023-01-25T10:44:15.083Z,48.13
2023-01-25T10:46:53.907Z,46.23
2023-01-25T10:49:31.607Z,43.67
2023-01-25T10:52:15.904Z,44.53
2023-01-25T10:54:45.819Z,43.80
2023-01-25T10:57:20.159Z,40.90
2023-01-25T10:59:53.827Z,41.37
2023-01-25T11:02:43.709Z,40.50
2023-01-25T11:05:38.202Z,41.97
2023-01-25T11:08:26.424Z,40.30
2023-01-25T11:10:57.093Z,46.03
2023-01-25T11:13:29.570Z,44.77
2023-01-25T11:16:19.414Z,46.93
2023-01-25T11:18:54.450Z,43.63
2023-01-25T11:21:28.215Z,40.47
2023-01-25T11:24:05.982Z,37.73
2023-01-25T11:26:38.299Z,44.60
2023-01-25T11:29:16.253Z,37.43
2023-01-25T11:31:49.475Z,43.47
2023-01-25T11:34:21.417Z,50.53
2023-01-25T11:37:11.671Z,46.10
2023-01-25T11:39:54.380Z,45.47
2023-01-25T11:42:39.298Z,45.07
2023-01-25T11:45:47.628Z,45.37
2023-01-25T11:48:44.004Z,43.53
2023-01-25T11:51:20.529Z,46.53
2023-01-25T11:54:08.452Z,46.47
2023-01-25T11:56:52.327Z,45.47
2023-01-25T11:59:35.467Z,46.53
2023-01-25T12:02:22.863Z,46.90
2023-01-25T12:05:22.502Z,44.97
2023-01-25T12:08:00.866Z,41.00
2023-01-25T12:10:44.701Z,49.93
2023-01-25T12:13:21.458Z,54.63
2023-01-25T12:16:09.301Z,53.47
2023-01-25T12:18:59.607Z,53.97
2023-01-25T12:21:43.143Z,44.07
2023-01-25T12:24:32.569Z,48.37
2023-01-25T12:27:15.442Z,48.10
2023-01-25T12:29:49.472Z,46.83
2023-01-25T12:32:24.738Z,52.77
2023-01-25T12:35:17.210Z,52.33
2023-01-25T12:37:49.973Z,54.70
2023-01-25T12:40:23.539Z,53.73
2023-01-25T12:43:01.722Z,51.80
2023-01-25T12:45:36.800Z,49.97
2023-01-25T12:48:21.740Z,54.57
2023-01-25T12:50:57.428Z,48.83
2023-01-25T12:53:30.460Z,52.63
2023-01-25T12:56:01.412Z,54.73
2023-01-25T12:58:41.298Z,47.60
2023-01-25T13:01:19.974Z,50.60
2023-01-25T13:04:14.439Z,54.70
2023-01-25T13:06:52.976Z,50.03
2023-01-25T13:09:29.745Z,58.10
2023-01-25T13:12:00.857Z,54.93
2023-01-25T13:14:40.111Z,53.63
2023-01-25T13:17:25.707Z,54.97
2023-01-25T13:19:56.303Z,51.03
2023-01-25T13:23:00.482Z,53.00
2023-01-25T13:25:30.504Z,58.07
2023-01-25T13:28:30.085Z,53.80
2023-01-25T13:31:02.617Z,54.40
2023-01-25T13:33:37.369Z,52.37
2023-01-25T13:36:41.511Z,47.67
2023-01-25T13:39:41.316Z,51.73
2023-01-25T13:42:24.148Z,50.20
2023-01-25T13:44:56.416Z,46.50
2023-01-25T13:47:38.014Z,55.13
2023-01-25T13:50:21.998Z,48.80
2023-01-25T13:53:02.955Z,57.27
2023-01-25T13:55:41.049Z,52.47
2023-01-25T13:58:19.722Z,53.47
2023-01-25T14:00:56.075Z,53.60
2023-01-25T14:03:30.965Z,56.73
2023-01-25T14:06:03.038Z,61.53
2023-01-25T14:08:34.129Z,55.90
2023-01-25T14:11:04.548Z,54.97
2023-01-25T14:13:34.393Z,56.30
2023-01-25T14:16:13.333Z,54.47
2023-01-25T14:18:46.017Z,54.97
2023-01-25T14:21:19.325Z,51.60
2023-01-25T14:23:50.284Z,51.40
2023-01-25T14:26:25.569Z,55.53
2023-01-25T14:29:01.560Z,58.00
2023-01-25T14:31:37.214Z,56.57
2023-01-25T14:34:18.393Z,58.20
2023-01-25T14:36:50.215Z,61.30
2023-01-25T14:39:29.882Z,55.03
2023-01-25T14:42:01.742Z,59.87
2023-01-25T14:44:32.836Z,53.03
2023-01-25T14:47:25.848Z,56.20
2023-01-25T14:50:00.786Z,58.07
2023-01-25T14:52:31.008Z,58.27
2023-01-25T14:55:03.049Z,51.40
2023-01-25T14:57:37.268Z,55.83
2023-01-25T15:00:09.678Z,47.77
2023-01-25T15:02:43.886Z,52.27
2023-01-25T15:05:24.874Z,53.57
2023-01-25T15:07:56.535Z,49.00
2023-01-25T15:10:28.647Z,50.27
2023-01-25T15:13:13.316Z,48.77
2023-01-25T15:15:54.237Z,57.07
2023-01-25T15:18:45.750Z,53.73
2023-01-25T15:21:19.501Z,61.47
2023-01-25T15:23:51.031Z,58.93
2023-01-25T15:26:24.362Z,57.27
2023-01-25T15:28:56.532Z,49.63
2023-01-25T15:31:31.315Z,60.63
2023-01-25T15:34:02.614Z,53.13
2023-01-25T15:36:36.275Z,50.90
2023-01-25T15:39:06.210Z,53.30
2023-01-25T15:41:36.067Z,56.40
2023-01-25T15:44:06.240Z,55.87
2023-01-25T15:46:36.528Z,48.27
2023-01-25T15:49:08.483Z,54.30
2023-01-25T15:51:40.937Z,52.50
2023-01-25T15:54:12.276Z,54.43
2023-01-25T15:56:45.018Z,50.00
2023-01-25T15:59:20.371Z,53.93
2023-01-25T16:01:50.374Z,53.70
2023-01-25T16:04:20.205Z,54.43
2023-01-25T16:06:54.433Z,55.13
2023-01-25T16:09:26.912Z,57.07
2023-01-25T16:11:59.267Z,52.77
2023-01-25T16:14:31.983Z,56.03
2023-01-25T16:17:05.896Z,56.17
2023-01-25T16:19:37.190Z,55.67
2023-01-25T16:22:10.053Z,55.20
2023-01-25T16:24:40.225Z,55.73
2023-01-25T16:27:25.626Z,60.10
2023-01-25T16:29:56.262Z,55.07
2023-01-25T16:32:26.309Z,58.33
2023-01-25T16:34:56.163Z,58.60
2023-01-25T16:37:28.683Z,50.27
2023-01-25T16:39:58.602Z,57.53
2023-01-25T16:42:28.555Z,53.83
2023-01-25T16:44:58.493Z,59.67
2023-01-25T16:47:28.696Z,58.63
2023-01-25T16:49:58.616Z,62.80
2023-01-25T16:52:31.224Z,62.87
2023-01-25T16:55:01.748Z,58.53
2023-01-25T16:57:31.689Z,63.93
2023-01-25T17:00:03.162Z,64.97
2023-01-25T17:02:33.383Z,79.43
2023-01-25T17:05:03.276Z,72.97
2023-01-25T17:07:36.177Z,76.60
2023-01-25T17:10:08.147Z,71.07
2023-01-25T17:12:38.285Z,67.00
2023-01-25T17:15:09.646Z,72.70
2023-01-25T17:17:39.528Z,72.27
2023-01-25T17:20:10.627Z,69.00
2023-01-25T17:22:51.375Z,64.47
2023-01-25T17:25:21.643Z,71.70
2023-01-25T17:27:51.543Z,67.97
2023-01-25T17:30:22.057Z,65.97
2023-01-25T17:32:51.946Z,68.67
2023-01-25T17:35:21.831Z,65.13
2023-01-25T17:37:57.485Z,70.33
2023-01-25T17:40:27.683Z,66.83
2023-01-25T17:42:57.678Z,65.37
2023-01-25T17:45:27.533Z,70.33
2023-01-25T17:47:57.337Z,62.77
2023-01-25T17:50:27.126Z,74.90
2023-01-25T17:52:59.573Z,71.53
2023-01-25T17:55:29.617Z,68.77
2023-01-25T17:57:59.668Z,71.33
2023-01-25T18:00:29.709Z,72.43
2023-01-25T18:02:59.740Z,76.43
2023-01-25T18:05:30.711Z,74.13
2023-01-25T18:08:03.352Z,75.70
2023-01-25T18:10:33.273Z,73.73
2023-01-25T18:13:05.021Z,70.17
2023-01-25T18:15:35.253Z,72.20
2023-01-25T18:18:05.159Z,76.97
2023-01-25T18:20:35.592Z,76.67
2023-01-25T18:23:08.044Z,76.63
2023-01-25T18:25:39.724Z,73.00
2023-01-25T18:28:10.284Z,73.43
2023-01-25T18:30:46.265Z,68.97
2023-01-25T18:33:16.113Z,75.33
2023-01-25T18:35:48.587Z,77.17
2023-01-25T18:38:21.175Z,77.73
2023-01-25T18:40:51.049Z,72.53
2023-01-25T18:43:20.977Z,71.00
2023-01-25T18:45:58.800Z,70.73
2023-01-25T18:48:33.160Z,83.47
2023-01-25T18:51:08.211Z,75.33
2023-01-25T18:53:42.480Z,74.03
2023-01-25T18:56:15.691Z,77.60
2023-01-25T18:58:46.488Z,71.90
2023-01-25T19:01:19.343Z,72.30
2023-01-25T19:03:50.290Z,69.57
2023-01-25T19:06:21.209Z,70.97
2023-01-25T19:08:56.539Z,68.40
2023-01-25T19:11:27.063Z,65.17
2023-01-25T19:13:58.443Z,77.63
2023-01-25T19:16:28.601Z,67.80
2023-01-25T19:18:58.745Z,62.27
2023-01-25T19:21:30.763Z,76.30
2023-01-25T19:24:03.481Z,66.00
2023-01-25T19:26:33.540Z,69.57
2023-01-25T19:29:03.398Z,66.13
2023-01-25T19:31:33.897Z,67.87
2023-01-25T19:34:05.505Z,70.80
2023-01-25T19:36:37.057Z,67.87
2023-01-25T19:39:10.682Z,69.23
2023-01-25T19:41:41.716Z,69.93
2023-01-25T19:44:14.760Z,63.27
2023-01-25T19:46:45.045Z,69.23
2023-01-25T19:49:16.140Z,69.37
2023-01-25T19:51:53.148Z,71.97
2023-01-25T19:54:25.993Z,74.07
2023-01-25T19:56:56.277Z,71.57
2023-01-25T19:59:27.985Z,65.97
2023-01-25T20:01:58.144Z,63.33
2023-01-25T20:04:27.988Z,71.47
2023-01-25T20:06:57.879Z,66.23
2023-01-25T20:09:30.833Z,67.20
2023-01-25T20:12:03.190Z,62.67
2023-01-25T20:14:33.255Z,57.37
2023-01-25T20:17:03.274Z,61.50
2023-01-25T20:19:35.278Z,60.63
2023-01-25T20:22:05.101Z,58.80
2023-01-25T20:24:37.711Z,58.73
2023-01-25T20:27:07.564Z,58.37
2023-01-25T20:29:37.440Z,58.87
2023-01-25T20:32:07.948Z,60.23
2023-01-25T20:34:38.437Z,56.17
2023-01-25T20:37:08.296Z,53.60
2023-01-25T20:39:40.651Z,49.83
2023-01-25T20:42:10.451Z,55.57
2023-01-25T20:44:40.256Z,53.23
2023-01-25T20:47:10.046Z,52.27
2023-01-25T20:49:41.253Z,52.63
2023-01-25T20:52:13.851Z,54.00
2023-01-25T20:54:46.597Z,54.20
2023-01-25T20:57:16.379Z,53.97
2023-01-25T20:59:46.158Z,56.30
2023-01-25T21:02:16.008Z,50.63
2023-01-25T21:04:45.824Z,53.80
2023-01-25T21:07:15.682Z,52.10
2023-01-25T21:09:48.222Z,52.27
2023-01-25T21:12:18.112Z,60.67
2023-01-25T21:14:47.870Z,49.67
2023-01-25T21:17:17.664Z,51.67
2023-01-25T21:19:47.455Z,55.00
2023-01-25T21:22:18.522Z,53.27
2023-01-25T21:24:50.946Z,48.50
2023-01-25T21:27:20.778Z,48.20
2023-01-25T21:29:50.574Z,45.23
2023-01-25T21:32:20.428Z,45.43
2023-01-25T21:34:50.219Z,41.90
2023-01-25T21:37:20.025Z,45.83
2023-01-25T21:39:52.434Z,38.87
2023-01-25T21:42:22.239Z,40.67
2023-01-25T21:45:04.418Z,37.23
2023-01-25T21:47:34.300Z,44.13
2023-01-25T21:50:16.461Z,41.97
2023-01-25T21:52:46.273Z,41.60
2023-01-25T21:55:18.747Z,38.60
2023-01-25T21:57:49.230Z,39.53
2023-01-25T22:00:20.662Z,35.43
2023-01-25T22:02:53.710Z,38.13
2023-01-25T22:05:23.523Z,35.10
2023-01-25T22:07:53.312Z,36.60
2023-01-25T22:10:27.050Z,31.93
2023-01-25T22:12:56.857Z,36.23
2023-01-25T22:15:26.989Z,37.57
2023-01-25T22:17:56.807Z,36.60
2023-01-25T22:20:26.631Z,36.63
2023-01-25T22:22:56.471Z,33.60
2023-01-25T22:25:29.043Z,35.87
2023-01-25T22:28:02.760Z,37.53
2023-01-25T22:30:32.651Z,32.00
2023-01-25T22:33:02.718Z,35.40
2023-01-25T22:35:32.510Z,30.57
2023-01-25T22:38:02.316Z,32.77
2023-01-25T22:40:34.688Z,28.77
2023-01-25T22:43:04.486Z,33.37
2023-01-25T22:45:34.256Z,31.00
2023-01-25T22:48:04.100Z,30.83
2023-01-25T22:50:34.050Z,27.63
2023-01-25T22:53:03.847Z,28.27
2023-01-25T22:55:36.251Z,28.03
2023-01-25T22:58:06.084Z,28.73
2023-01-25T23:00:35.879Z,26.07
2023-01-25T23:03:05.694Z,26.07
2023-01-25T23:05:35.501Z,31.20
2023-01-25T23:08:05.251Z,24.87
2023-01-25T23:10:37.648Z,28.17
2023-01-25T23:13:07.520Z,28.63
2023-01-25T23:15:37.243Z,30.07
2023-01-25T23:18:19.863Z,27.97
2023-01-25T23:20:49.574Z,27.83
2023-01-25T23:23:19.419Z,28.27
2023-01-25T23:25:51.975Z,27.43
2023-01-25T23:28:21.746Z,27.27
2023-01-25T23:31:07.800Z,25.83
2023-01-25T23:33:37.641Z,27.67
2023-01-25T23:36:11.957Z,26.33
2023-01-25T23:38:41.724Z,28.80
2023-01-25T23:41:14.178Z,30.37
2023-01-25T23:43:44.531Z,30.13
2023-01-25T23:46:15.348Z,30.77
2023-01-25T23:48:45.941Z,30.13
2023-01-25T23:51:17.776Z,26.23
2023-01-25T23:53:48.209Z,24.67
2023-01-25T23:56:22.960Z,29.87
2023-01-25T23:58:53.221Z,29.33
